Time;durP1;ratioP1;P1;durP2;ratioP2;P2;SDS_P1;SDS_P2;PMS_P1;PMS_P2;Temp;Humidity;BMP_temperature;BMP_pressure;BME280_temperature;BME280_humidity;BME280_pressure;Samples;Min_cycle;Max_cycle;Signal;HPM_P1;HPM_P2
2023/01/31 00:00:52;;;;;;;25.10;3.17;;;4.50;99.90;;;;;;4667128;30;20054;-88
2023/01/31 00:03:17;;;;;;;18.60;3.30;;;4.50;99.90;;;;;;4651938;30;20147;-87
2023/01/31 00:05:43;;;;;;;15.15;2.42;;;4.50;99.90;;;;;;4651086;30;20063;-87
2023/01/31 00:08:09;;;;;;;17.05;3.13;;;4.50;99.90;;;;;;4652016;30;20065;-88
2023/01/31 00:10:35;;;;;;;15.02;2.55;;;4.50;99.90;;;;;;4649459;30;20433;-87
2023/01/31 00:13:00;;;;;;;20.38;2.60;;;4.50;99.90;;;;;;4649882;30;20047;-87
2023/01/31 00:15:26;;;;;;;19.45;2.85;;;4.50;99.90;;;;;;4650062;30;20118;-87
2023/01/31 00:17:53;;;;;;;15.40;2.67;;;4.40;99.90;;;;;;4635073;30;20130;-87
2023/01/31 00:20:19;;;;;;;18.27;3.10;;;4.50;99.90;;;;;;4633881;30;20059;-87
2023/01/31 00:22:47;;;;;;;14.77;2.80;;;4.40;99.90;;;;;;4634790;30;20496;-87
2023/01/31 00:25:12;;;;;;;17.65;2.65;;;4.50;99.90;;;;;;4636687;30;20058;-87
2023/01/31 00:27:44;;;;;;;15.80;2.53;;;4.40;99.90;;;;;;4650881;30;20058;-87
2023/01/31 00:30:10;;;;;;;17.48;2.42;;;4.40;99.90;;;;;;4651812;30;20058;-87
2023/01/31 00:32:36;;;;;;;16.98;2.67;;;4.40;99.90;;;;;;4652858;30;20054;-87
2023/01/31 00:35:01;;;;;;;16.10;2.78;;;4.40;99.90;;;;;;4651085;30;20047;-87
2023/01/31 00:37:27;;;;;;;20.48;2.38;;;4.30;99.90;;;;;;4666688;30;20055;-87
2023/01/31 00:39:53;;;;;;;18.85;2.65;;;4.30;99.90;;;;;;4666509;30;20046;-87
2023/01/31 00:42:18;;;;;;;11.65;2.40;;;4.30;99.90;;;;;;4665718;30;20054;-87
2023/01/31 00:44:44;;;;;;;11.43;2.05;;;4.30;99.90;;;;;;4666697;30;20046;-88
2023/01/31 00:47:09;;;;;;;12.75;2.30;;;4.30;99.90;;;;;;4666838;30;20086;-87
2023/01/31 00:49:35;;;;;;;13.68;2.28;;;4.20;99.90;;;;;;4650285;30;20062;-87
2023/01/31 00:52:01;;;;;;;14.55;2.15;;;4.20;99.90;;;;;;4651539;30;20057;-87
2023/01/31 00:54:26;;;;;;;13.20;1.98;;;4.20;99.90;;;;;;4665866;30;20053;-87
2023/01/31 00:56:55;;;;;;;17.58;2.50;;;4.20;99.90;;;;;;4650307;30;20046;-87
2023/01/31 00:59:20;;;;;;;17.38;2.60;;;4.20;99.90;;;;;;4651218;30;20061;-87
2023/01/31 01:01:49;;;;;;;14.23;2.72;;;4.20;99.90;;;;;;4650302;30;20050;-86
2023/01/31 01:04:15;;;;;;;19.05;2.85;;;4.10;99.90;;;;;;4651100;30;20058;-87
2023/01/31 01:06:40;;;;;;;17.17;2.08;;;4.10;99.90;;;;;;4665912;30;20512;-87
2023/01/31 01:09:06;;;;;;;23.25;2.85;;;4.10;99.90;;;;;;4650001;30;20085;-87
2023/01/31 01:11:32;;;;;;;16.40;2.50;;;4.00;99.90;;;;;;4650766;30;20057;-87
2023/01/31 01:13:59;;;;;;;13.50;2.28;;;4.00;99.90;;;;;;4666418;30;20054;-87
2023/01/31 01:16:32;;;;;;;21.13;3.15;;;4.00;99.90;;;;;;4649785;30;20050;-87
2023/01/31 01:19:01;;;;;;;23.73;3.25;;;4.00;99.90;;;;;;4650950;30;20065;-87
2023/01/31 01:21:28;;;;;;;12.35;2.30;;;4.00;99.90;;;;;;4646464;30;20126;-87
2023/01/31 01:23:59;;;;;;;15.23;2.55;;;3.90;99.90;;;;;;4648295;30;20054;-87
2023/01/31 01:26:31;;;;;;;23.15;3.20;;;3.90;99.90;;;;;;4648130;30;20059;-88
2023/01/31 01:28:59;;;;;;;18.10;2.63;;;4.00;99.90;;;;;;4649141;30;20051;-87
2023/01/31 01:31:31;;;;;;;16.05;2.35;;;3.90;99.90;;;;;;4646823;30;20122;-87
2023/01/31 01:34:10;;;;;;;16.23;2.53;;;3.90;99.90;;;;;;4648364;30;20527;-87
2023/01/31 01:36:36;;;;;;;11.63;2.05;;;3.90;99.90;;;;;;4633418;30;20062;-87
2023/01/31 01:39:05;;;;;;;8.98;1.83;;;3.90;99.90;;;;;;4648057;30;20054;-88
2023/01/31 01:41:33;;;;;;;18.60;2.30;;;3.90;99.90;;;;;;4647577;30;20054;-87
2023/01/31 01:44:00;;;;;;;10.43;1.80;;;3.80;99.90;;;;;;4647163;30;20058;-87
2023/01/31 01:46:29;;;;;;;8.65;1.60;;;3.80;99.90;;;;;;4646798;30;20511;-86
2023/01/31 01:49:04;;;;;;;12.30;1.83;;;3.80;99.90;;;;;;4646671;30;20121;-87
2023/01/31 01:51:32;;;;;;;10.30;2.00;;;3.80;99.90;;;;;;4630959;31;20059;-87
2023/01/31 01:54:03;;;;;;;16.65;2.58;;;3.80;99.90;;;;;;4631832;31;20551;-87
2023/01/31 01:56:39;;;;;;;16.52;2.10;;;3.80;99.90;;;;;;4632233;30;20413;-87
2023/01/31 01:59:11;;;;;;;17.35;2.53;;;3.70;99.90;;;;;;4646726;30;20059;-87
2023/01/31 02:01:37;;;;;;;14.73;2.35;;;3.70;99.90;;;;;;4647749;30;20050;-87
2023/01/31 02:04:08;;;;;;;17.48;2.45;;;3.70;99.90;;;;;;4647411;30;20065;-87
2023/01/31 02:06:34;;;;;;;13.63;1.77;;;3.70;99.90;;;;;;4647656;30;20394;-87
2023/01/31 02:09:00;;;;;;;15.45;2.22;;;3.60;99.90;;;;;;4648514;30;20058;-87
2023/01/31 02:11:30;;;;;;;12.55;1.65;;;3.70;99.90;;;;;;4647879;30;20043;-87
2023/01/31 02:14:09;;;;;;;9.43;1.55;;;3.60;99.90;;;;;;4647442;30;20107;-87
2023/01/31 02:16:35;;;;;;;16.58;2.70;;;3.70;99.90;;;;;;4647165;30;20564;-88
2023/01/31 02:19:01;;;;;;;16.08;2.00;;;3.60;99.90;;;;;;4647234;30;20046;-88
2023/01/31 02:21:47;;;;;;;14.35;2.05;;;3.60;99.90;;;;;;4651534;30;20069;-87
2023/01/31 02:24:30;;;;;;;7.68;1.50;;;3.60;99.90;;;;;;4649573;30;20062;-87
2023/01/31 02:27:16;;;;;;;9.65;2.05;;;3.60;99.90;;;;;;4632380;30;20055;-87
2023/01/31 02:29:42;;;;;;;11.93;1.90;;;3.60;99.90;;;;;;4663196;30;20416;-87
2023/01/31 02:32:42;;;;;;;13.65;2.30;;;3.60;99.90;;;;;;4649961;30;20061;-87
2023/01/31 02:35:37;;;;;;;12.93;1.75;;;3.60;99.90;;;;;;4649224;30;20524;-87
2023/01/31 02:38:18;;;;;;;14.75;1.70;;;3.60;99.90;;;;;;4652218;30;20054;-87
2023/01/31 02:41:26;;;;;;;11.95;1.85;;;3.60;99.90;;;;;;4652873;30;20054;-87
2023/01/31 02:46:56;;;;;;;16.98;2.67;;;3.60;99.90;;;;;;4652695;30;20504;-87
2023/01/31 02:49:33;;;;;;;14.93;2.50;;;3.60;99.90;;;;;;4651823;30;20057;-87
2023/01/31 02:52:44;;;;;;;21.55;2.83;;;3.60;99.90;;;;;;4650086;30;20066;-88
2023/01/31 02:58:10;;;;;;;14.93;2.13;;;3.60;99.90;;;;;;4651554;30;20062;-87
2023/01/31 03:00:39;;;;;;;14.32;2.08;;;3.60;99.90;;;;;;4636134;30;20141;-87
2023/01/31 03:03:11;;;;;;;20.70;2.95;;;3.60;99.90;;;;;;4635195;30;20050;-87
2023/01/31 03:05:37;;;;;;;22.73;2.90;;;3.70;99.90;;;;;;4638610;30;20050;-87
2023/01/31 03:08:05;;;;;;;16.27;1.98;;;3.70;99.90;;;;;;4652199;30;20556;-87
2023/01/31 03:10:36;;;;;;;14.20;2.10;;;3.70;99.90;;;;;;4651367;30;20424;-87
2023/01/31 03:13:21;;;;;;;17.08;2.25;;;3.70;99.90;;;;;;4668259;30;20063;-87
2023/01/31 03:18:55;;;;;;;16.23;2.63;;;3.70;99.90;;;;;;4652687;30;20054;-87
2023/01/31 03:21:35;;;;;;;10.27;1.92;;;3.70;99.90;;;;;;4667360;30;20070;-86
2023/01/31 03:24:03;;;;;;;17.88;2.75;;;3.70;99.90;;;;;;4649292;30;20062;-87
2023/01/31 03:26:29;;;;;;;15.98;2.67;;;3.70;99.90;;;;;;4635362;30;20066;-87
2023/01/31 03:28:59;;;;;;;12.90;2.58;;;3.80;99.90;;;;;;4636043;30;20051;-87
2023/01/31 03:31:50;;;;;;;13.77;2.33;;;3.80;99.90;;;;;;4644050;30;20501;-87
2023/01/31 03:34:16;;;;;;;22.17;3.10;;;3.80;99.90;;;;;;4665187;30;20085;-87
2023/01/31 03:37:05;;;;;;;17.75;2.13;;;3.80;99.90;;;;;;4667014;30;20047;-87
2023/01/31 03:39:43;;;;;;;20.75;2.95;;;3.80;99.90;;;;;;4667169;30;20164;-86
2023/01/31 03:42:18;;;;;;;17.05;2.72;;;3.90;99.90;;;;;;4652282;30;20058;-87
2023/01/31 03:44:58;;;;;;;14.70;1.90;;;3.90;99.90;;;;;;4667066;30;20409;-86
2023/01/31 03:47:35;;;;;;;19.55;2.35;;;3.90;99.90;;;;;;4652160;30;20505;-87
2023/01/31 03:50:07;;;;;;;22.38;3.47;;;3.90;99.90;;;;;;4666312;30;20462;-86
2023/01/31 03:52:42;;;;;;;25.17;3.20;;;4.00;99.90;;;;;;4659965;25;20172;-86
2023/01/31 03:55:15;;;;;;;21.30;3.65;;;4.00;99.90;;;;;;4668953;30;20093;-86
2023/01/31 03:57:44;;;;;;;25.25;3.00;;;4.00;99.90;;;;;;4668139;30;20519;-87
2023/01/31 04:00:14;;;;;;;23.60;2.60;;;4.10;99.90;;;;;;4669790;30;20108;-86
2023/01/31 04:02:40;;;;;;;25.08;3.25;;;4.10;99.90;;;;;;4669130;30;20415;-86
2023/01/31 04:05:17;;;;;;;15.95;3.42;;;4.20;99.90;;;;;;4683837;30;20081;-87
2023/01/31 04:07:43;;;;;;;17.90;2.83;;;4.20;99.90;;;;;;4669251;30;20115;-87
2023/01/31 04:10:14;;;;;;;19.55;2.67;;;4.20;99.90;;;;;;4683859;30;20492;-87
2023/01/31 04:12:40;;;;;;;23.63;3.03;;;4.20;99.90;;;;;;4668395;30;20129;-86
2023/01/31 04:15:06;;;;;;;23.92;3.60;;;4.30;99.90;;;;;;4668957;30;20092;-87
2023/01/31 04:17:34;;;;;;;19.65;3.08;;;4.30;99.90;;;;;;4683960;30;20092;-87
2023/01/31 04:20:00;;;;;;;24.63;3.20;;;4.30;99.90;;;;;;4668058;30;20089;-87
2023/01/31 04:22:26;;;;;;;18.30;2.60;;;4.30;99.90;;;;;;4683832;30;20079;-86
2023/01/31 04:24:52;;;;;;;25.00;2.83;;;4.30;99.90;;;;;;4668290;30;20061;-87
2023/01/31 04:27:17;;;;;;;22.77;3.20;;;4.40;99.90;;;;;;4667375;30;20053;-87
2023/01/31 04:29:43;;;;;;;22.02;3.35;;;4.40;99.90;;;;;;4668083;30;20424;-87
2023/01/31 04:32:09;;;;;;;21.58;3.30;;;4.40;99.90;;;;;;4668535;30;20100;-87
2023/01/31 04:34:34;;;;;;;21.08;3.25;;;4.40;99.90;;;;;;4667294;30;20072;-87
2023/01/31 04:37:00;;;;;;;22.40;3.30;;;4.40;99.90;;;;;;4668233;30;20049;-87
2023/01/31 04:39:26;;;;;;;28.25;3.67;;;4.40;99.90;;;;;;4683615;30;20058;-87
2023/01/31 04:41:51;;;;;;;20.48;3.50;;;4.50;99.90;;;;;;4667404;30;20056;-88
2023/01/31 04:44:17;;;;;;;18.98;3.38;;;4.50;99.90;;;;;;4667545;30;20050;-87
2023/01/31 04:46:45;;;;;;;26.05;3.75;;;4.50;99.90;;;;;;4668199;30;20408;-87
2023/01/31 04:49:11;;;;;;;23.13;3.38;;;4.50;99.90;;;;;;4682713;30;20575;-87
2023/01/31 04:51:37;;;;;;;22.33;2.58;;;4.50;99.90;;;;;;4683585;30;20054;-87
2023/01/31 04:54:03;;;;;;;20.25;3.10;;;4.50;99.90;;;;;;4682659;30;20431;-87
2023/01/31 04:56:30;;;;;;;19.05;3.10;;;4.50;99.90;;;;;;4667754;30;20065;-86
2023/01/31 04:58:56;;;;;;;22.30;3.60;;;4.60;99.90;;;;;;4667708;30;20058;-88
2023/01/31 05:01:22;;;;;;;21.80;3.47;;;4.60;99.90;;;;;;4682205;30;20415;-87
2023/01/31 05:03:48;;;;;;;30.02;3.58;;;4.60;99.90;;;;;;4668080;30;20542;-87
2023/01/31 05:06:14;;;;;;;24.55;4.25;;;4.60;99.90;;;;;;4667287;30;20082;-87
2023/01/31 05:08:39;;;;;;;25.85;3.55;;;4.60;99.90;;;;;;4682898;30;20054;-87
2023/01/31 05:11:06;;;;;;;23.45;3.47;;;4.60;99.90;;;;;;4668084;30;20562;-87
2023/01/31 05:13:36;;;;;;;26.77;4.13;;;4.60;99.90;;;;;;4667385;30;20103;-87
2023/01/31 05:16:09;;;;;;;27.45;4.00;;;4.60;99.90;;;;;;4682721;30;20092;-87
2023/01/31 05:18:36;;;;;;;29.05;3.92;;;4.60;99.90;;;;;;4682627;30;20049;-88
2023/01/31 05:21:03;;;;;;;27.35;3.78;;;4.70;99.90;;;;;;4667568;30;20507;-88
2023/01/31 05:23:29;;;;;;;27.58;4.05;;;4.70;99.90;;;;;;4666691;30;20053;-88
2023/01/31 05:25:55;;;;;;;24.13;3.42;;;4.70;99.90;;;;;;4667213;30;20053;-88
2023/01/31 05:28:20;;;;;;;25.20;4.18;;;4.70;99.90;;;;;;4666722;30;20050;-87
2023/01/31 05:30:46;;;;;;;25.35;3.88;;;4.70;99.90;;;;;;4682338;30;20061;-88
2023/01/31 05:33:15;;;;;;;23.25;3.70;;;4.70;99.90;;;;;;4682980;30;20054;-87
2023/01/31 05:35:41;;;;;;;21.50;3.85;;;4.80;99.90;;;;;;4683142;30;20125;-87
2023/01/31 05:38:11;;;;;;;24.92;4.05;;;4.80;99.90;;;;;;4666925;30;20492;-87
2023/01/31 05:40:37;;;;;;;27.65;3.65;;;4.80;99.90;;;;;;4667642;30;20054;-87
2023/01/31 05:43:03;;;;;;;27.65;3.85;;;4.80;99.90;;;;;;4682645;30;20510;-88
2023/01/31 05:45:29;;;;;;;35.33;4.60;;;4.80;99.90;;;;;;4666308;30;20046;-88
2023/01/31 05:47:55;;;;;;;32.50;4.50;;;4.80;99.90;;;;;;4682867;30;20124;-88
2023/01/31 05:50:21;;;;;;;32.65;5.22;;;4.80;99.90;;;;;;4681804;30;20480;-88
2023/01/31 05:52:57;;;;;;;25.92;4.43;;;4.90;99.90;;;;;;4667321;30;20060;-88
2023/01/31 05:55:23;;;;;;;28.35;4.63;;;4.90;99.90;;;;;;4666992;30;20563;-87
2023/01/31 05:57:48;;;;;;;29.77;4.60;;;4.90;99.90;;;;;;4681844;30;20129;-88
2023/01/31 06:00:15;;;;;;;31.25;5.25;;;4.90;99.90;;;;;;4667316;30;20408;-87
2023/01/31 06:03:04;;;;;;;30.20;4.68;;;4.90;99.90;;;;;;4667075;30;20100;-87
2023/01/31 06:05:30;;;;;;;33.33;4.68;;;5.00;99.90;;;;;;4678843;30;20066;-88
2023/01/31 06:08:09;;;;;;;37.60;6.10;;;5.00;99.90;;;;;;4682371;30;20049;-88
2023/01/31 06:10:50;;;;;;;31.40;4.88;;;5.10;99.90;;;;;;4681947;30;20492;-88
2023/01/31 06:13:32;;;;;;;26.73;4.65;;;5.10;99.90;;;;;;4648746;30;20099;-88
2023/01/31 06:16:04;;;;;;;40.53;5.30;;;5.20;99.90;;;;;;4665484;30;20050;-88
2023/01/31 06:18:33;;;;;;;27.67;5.05;;;5.10;99.90;;;;;;4649330;30;20062;-88
2023/01/31 06:20:58;;;;;;;32.28;5.40;;;5.20;99.90;;;;;;4665185;30;20076;-89
2023/01/31 06:23:24;;;;;;;32.15;5.50;;;5.20;99.90;;;;;;4649585;30;20055;-88
2023/01/31 06:25:54;;;;;;;30.33;5.57;;;5.20;99.90;;;;;;4652607;30;20061;-88
2023/01/31 06:28:23;;;;;;;26.40;4.70;;;5.30;99.90;;;;;;4682083;30;20065;-89
2023/01/31 06:31:12;;;;;;;26.73;5.30;;;5.30;99.90;;;;;;4666887;30;20079;-88
2023/01/31 06:33:42;;;;;;;28.50;4.80;;;5.30;99.90;;;;;;4663768;30;20208;-87
2023/01/31 06:36:08;;;;;;;28.10;4.75;;;5.30;99.90;;;;;;4667095;30;20187;-88
2023/01/31 06:38:36;;;;;;;25.80;4.32;;;5.30;99.90;;;;;;4682099;30;20695;-88
2023/01/31 06:41:05;;;;;;;25.50;5.00;;;5.40;99.90;;;;;;4666151;30;20133;-88
2023/01/31 06:43:36;;;;;;;27.15;4.75;;;5.40;99.90;;;;;;4666601;30;20149;-88
2023/01/31 06:46:05;;;;;;;22.30;3.97;;;5.40;99.90;;;;;;4681749;30;20061;-88
2023/01/31 06:48:30;;;;;;;27.45;4.85;;;5.40;99.90;;;;;;4666219;30;20065;-89
2023/01/31 06:50:56;;;;;;;31.00;4.93;;;5.40;99.90;;;;;;4682344;30;20061;-88
2023/01/31 06:56:24;;;;;;;22.67;4.00;;;5.50;99.90;;;;;;4663476;30;20452;-88
2023/01/31 06:58:52;;;;;;;33.53;4.78;;;5.50;99.90;;;;;;4649769;30;20054;-89
2023/01/31 07:01:30;;;;;;;25.60;4.30;;;5.50;99.90;;;;;;4649096;30;20054;-89
2023/01/31 07:04:01;;;;;;;26.77;3.90;;;5.50;99.90;;;;;;4664441;30;20504;-89
2023/01/31 07:06:42;;;;;;;25.33;3.90;;;5.50;99.90;;;;;;4650115;30;20485;-89
2023/01/31 07:09:19;;;;;;;29.35;4.30;;;5.60;99.90;;;;;;4632319;30;20051;-88
2023/01/31 07:11:45;;;;;;;29.00;4.07;;;5.60;99.90;;;;;;4634525;30;20051;-89
2023/01/31 07:14:23;;;;;;;28.23;4.18;;;5.70;99.90;;;;;;4633402;30;20552;-89
2023/01/31 07:17:02;;;;;;;23.40;3.65;;;5.60;99.90;;;;;;4633451;30;20051;-89
2023/01/31 07:19:42;;;;;;;23.30;3.55;;;5.60;99.90;;;;;;4634160;30;20055;-89
2023/01/31 07:22:20;;;;;;;27.65;4.22;;;5.60;99.90;;;;;;4638266;30;20059;-89
2023/01/31 07:24:47;;;;;;;24.92;4.13;;;5.70;99.90;;;;;;4667085;30;20461;-89
2023/01/31 07:27:23;;;;;;;23.83;3.58;;;5.70;99.90;;;;;;4653211;30;20149;-89
2023/01/31 07:32:37;;;;;;;23.08;4.07;;;5.70;99.90;;;;;;4688727;25;20459;-88
2023/01/31 07:35:18;;;;;;;16.85;3.70;;;5.80;99.90;;;;;;4670374;30;20061;-89
2023/01/31 07:37:44;;;;;;;21.13;3.63;;;5.80;99.90;;;;;;4668932;30;20061;-87
2023/01/31 07:40:13;;;;;;;22.23;3.70;;;5.80;99.90;;;;;;4670434;30;20516;-88
2023/01/31 07:42:45;;;;;;;23.75;4.10;;;5.80;99.90;;;;;;4671089;30;20133;-87
2023/01/31 07:45:22;;;;;;;18.02;3.22;;;5.80;99.90;;;;;;4685903;30;20103;-87
2023/01/31 07:47:48;;;;;;;26.65;3.90;;;5.90;99.90;;;;;;4670189;30;20176;-87
2023/01/31 07:50:13;;;;;;;24.10;4.03;;;5.90;99.90;;;;;;4684629;30;20121;-88
2023/01/31 07:52:39;;;;;;;26.25;4.05;;;5.90;99.90;;;;;;4670144;30;20057;-87
2023/01/31 07:55:24;;;;;;;21.88;3.88;;;5.90;99.90;;;;;;4670449;30;20577;-88
2023/01/31 07:57:50;;;;;;;28.50;4.13;;;5.80;99.90;;;;;;4668966;30;20038;-89
2023/01/31 08:03:32;;;;;;;25.58;3.70;;;5.90;99.90;;;;;;4668816;30;20054;-89
2023/01/31 08:06:10;;;;;;;23.92;4.18;;;5.90;99.90;;;;;;4667663;30;20145;-88
2023/01/31 08:08:36;;;;;;;20.80;3.53;;;5.90;99.90;;;;;;4669039;30;20057;-88
2023/01/31 08:11:05;;;;;;;18.05;3.13;;;5.90;99.90;;;;;;4683709;30;20058;-87
2023/01/31 08:13:39;;;;;;;20.35;3.58;;;6.00;99.90;;;;;;4668764;30;20064;-88
2023/01/31 08:16:09;;;;;;;21.67;3.67;;;6.00;99.90;;;;;;4671630;24;20125;-88
2023/01/31 08:18:37;;;;;;;20.52;3.22;;;6.00;99.90;;;;;;4650995;30;20062;-88
2023/01/31 08:21:04;;;;;;;19.73;3.22;;;6.00;99.90;;;;;;4665195;30;20047;-89
2023/01/31 08:23:40;;;;;;;23.13;3.83;;;6.00;99.90;;;;;;4666033;30;20058;-92
2023/01/31 08:26:30;;;;;;;19.15;3.03;;;6.00;99.90;;;;;;4651493;30;20373;-90
2023/01/31 08:29:15;;;;;;;22.80;4.05;;;6.10;99.90;;;;;;4682501;25;20417;-88
2023/01/31 08:31:50;;;;;;;21.45;3.38;;;6.10;99.90;;;;;;4683167;30;20042;-87
2023/01/31 08:34:26;;;;;;;22.38;3.20;;;6.10;99.90;;;;;;4682704;30;20572;-89
2023/01/31 08:37:01;;;;;;;16.27;2.97;;;6.10;99.90;;;;;;4684148;30;20050;-88
2023/01/31 08:39:26;;;;;;;19.27;2.97;;;6.10;99.90;;;;;;4682565;30;20085;-88
2023/01/31 08:41:52;;;;;;;20.90;3.30;;;6.10;99.90;;;;;;4683860;30;20167;-89
2023/01/31 08:44:26;;;;;;;17.30;2.83;;;6.10;99.90;;;;;;4683232;30;20077;-89
2023/01/31 08:47:01;;;;;;;17.23;3.17;;;6.10;99.90;;;;;;4682226;30;20046;-88
2023/01/31 08:49:41;;;;;;;22.05;2.95;;;6.20;99.90;;;;;;4683429;30;20065;-88
2023/01/31 08:52:12;;;;;;;23.77;3.88;;;6.20;99.90;;;;;;4683347;30;20057;-88
2023/01/31 08:54:46;;;;;;;22.38;3.33;;;6.20;99.90;;;;;;4683062;30;20133;-90
2023/01/31 08:57:19;;;;;;;17.23;2.75;;;6.20;99.90;;;;;;4682629;30;20050;-89
2023/01/31 08:59:51;;;;;;;18.48;2.97;;;6.20;99.90;;;;;;4682434;30;20090;-88
2023/01/31 09:02:16;;;;;;;20.17;3.55;;;6.20;99.90;;;;;;4682701;30;20046;-89
2023/01/31 09:04:51;;;;;;;19.70;3.50;;;6.30;99.90;;;;;;4683173;30;20516;-89
2023/01/31 09:07:23;;;;;;;21.83;3.40;;;6.30;99.90;;;;;;4681848;30;20058;-89
2023/01/31 09:10:01;;;;;;;19.70;3.58;;;6.30;99.90;;;;;;4680823;30;20050;-88
2023/01/31 09:12:33;;;;;;;22.70;3.60;;;6.30;99.90;;;;;;4683257;30;20077;-88
2023/01/31 09:15:10;;;;;;;21.27;3.20;;;6.30;99.90;;;;;;4667833;30;20046;-87
2023/01/31 09:17:35;;;;;;;23.40;3.80;;;6.30;99.90;;;;;;4667928;30;20049;-87
2023/01/31 09:20:05;;;;;;;24.05;3.70;;;6.30;99.90;;;;;;4669340;30;20108;-87
2023/01/31 09:22:32;;;;;;;21.30;3.83;;;6.30;99.90;;;;;;4681229;30;20066;-86
2023/01/31 09:25:10;;;;;;;20.20;3.33;;;6.30;99.90;;;;;;4748552;24;20174;-89
2023/01/31 09:27:54;;;;;;;26.60;3.63;;;6.30;99.90;;;;;;4704060;24;20060;-89
2023/01/31 09:33:03;;;;;;;23.48;2.97;;;6.40;99.90;;;;;;4687560;24;20066;-90
2023/01/31 09:35:35;;;;;;;20.17;3.00;;;6.50;99.90;;;;;;4682233;30;20132;-89
2023/01/31 09:38:00;;;;;;;20.65;3.80;;;6.50;99.90;;;;;;4667723;30;20058;-89
2023/01/31 09:40:40;;;;;;;21.17;3.70;;;6.50;99.90;;;;;;4667580;30;20057;-90
2023/01/31 09:43:11;;;;;;;22.60;4.88;;;6.50;99.90;;;;;;4667510;30;20145;-89
2023/01/31 09:45:41;;;;;;;23.70;3.60;;;6.50;99.90;;;;;;4667568;30;20058;-90
2023/01/31 09:48:35;;;;;;;;;;;6.50;99.90;;;;;;4667917;30;20054;-90
2023/01/31 09:51:12;;;;;;;20.77;4.10;;;6.50;99.90;;;;;;4667678;30;19937;-90
2023/01/31 09:53:58;;;;;;;19.60;4.40;;;6.60;99.90;;;;;;4683142;30;20042;-90
2023/01/31 09:56:56;;;;;;;22.13;3.88;;;6.60;99.90;;;;;;4667118;30;20602;-90
2023/01/31 09:59:28;;;;;;;23.00;3.95;;;6.60;99.90;;;;;;4667417;30;20420;-91
2023/01/31 10:02:31;;;;;;;25.73;3.67;;;6.70;99.90;;;;;;4667446;30;20054;-89
2023/01/31 10:04:59;;;;;;;26.17;5.97;;;6.60;99.90;;;;;;4682782;30;20057;-91
2023/01/31 10:08:25;;;;;;;25.48;4.85;;;6.70;99.90;;;;;;4682722;30;20492;-90
2023/01/31 10:11:01;;;;;;;21.92;4.63;;;6.70;99.90;;;;;;4635220;30;20070;-90
2023/01/31 10:13:35;;;;;;;22.83;4.35;;;6.70;99.90;;;;;;4667552;30;20050;-91
2023/01/31 10:16:25;;;;;;;23.65;4.25;;;6.70;99.90;;;;;;4667674;30;20053;-90
2023/01/31 10:19:03;;;;;;;24.25;4.32;;;6.80;99.90;;;;;;4682216;30;20058;-89
2023/01/31 10:21:44;;;;;;;;;;;;;;;;;;;;;
2023/01/31 10:24:55;;;;;;;20.00;4.40;;;6.80;99.90;;;;;;4659892;30;20062;-91
2023/01/31 10:27:54;;;;;;;28.40;3.92;;;6.80;99.90;;;;;;4682129;30;20054;-89
2023/01/31 10:31:20;;;;;;;27.33;4.63;;;6.80;99.90;;;;;;4667190;30;20057;-90
2023/01/31 10:34:33;;;;;;;24.63;4.38;;;6.80;99.90;;;;;;4666376;30;20057;-91
2023/01/31 10:37:24;;;;;;;21.37;4.50;;;6.80;99.90;;;;;;4665880;30;20065;-90
2023/01/31 10:40:27;;;;;;;24.23;4.80;;;6.90;99.90;;;;;;4682028;30;20049;-91
2023/01/31 10:43:52;;;;;;;;;;;;;;;;;;;;;
2023/01/31 10:46:36;;;;;;;24.05;4.25;;;6.90;99.90;;;;;;4663050;30;20062;-90
2023/01/31 10:49:05;;;;;;;24.33;4.60;;;6.90;99.90;;;;;;4652793;30;20069;-90
2023/01/31 10:51:56;;;;;;;24.02;5.15;;;6.90;99.90;;;;;;4688414;24;20060;-90
2023/01/31 10:54:52;;;;;;;27.27;6.47;;;6.90;99.90;;;;;;4656972;30;20062;-89
2023/01/31 10:57:24;;;;;;;23.15;4.97;;;6.90;99.90;;;;;;4682146;30;20050;-90
2023/01/31 10:59:53;;;;;;;26.42;4.40;;;6.90;99.90;;;;;;4669376;30;20058;-91
2023/01/31 11:02:28;;;;;;;24.10;4.28;;;6.90;99.90;;;;;;4684850;30;20119;-90
2023/01/31 11:04:56;;;;;;;22.02;4.10;;;6.90;99.90;;;;;;4684824;24;20062;-89
2023/01/31 11:07:27;;;;;;;29.45;4.65;;;6.90;99.90;;;;;;4668465;30;20058;-92
2023/01/31 11:09:59;;;;;;;26.92;4.38;;;7.00;99.90;;;;;;4653714;30;20062;-89
2023/01/31 11:13:06;;;;;;;24.23;4.95;;;7.00;99.90;;;;;;4678024;25;20033;-90
2023/01/31 11:15:41;;;;;;;24.10;4.10;;;7.00;99.90;;;;;;4647469;30;20087;-91
2023/01/31 11:18:30;;;;;;;27.17;4.50;;;7.00;99.90;;;;;;4636033;30;20059;-92
2023/01/31 11:21:04;;;;;;;21.05;3.50;;;7.00;99.90;;;;;;4645333;25;20473;-92
2023/01/31 11:23:35;;;;;;;25.52;4.28;;;7.00;99.90;;;;;;4666551;25;20058;-90
2023/01/31 11:26:01;;;;;;;26.35;4.43;;;7.00;99.90;;;;;;4667602;30;20109;-89
2023/01/31 11:29:01;;;;;;;25.30;3.90;;;7.10;99.90;;;;;;4652366;30;20055;-88
2023/01/31 11:31:48;;;;;;;27.30;3.80;;;7.00;99.90;;;;;;4663756;30;20066;-89
2023/01/31 11:34:28;;;;;;;24.42;4.18;;;7.00;99.90;;;;;;4666185;30;20057;-89
2023/01/31 11:37:30;;;;;;;;;;;;;;;;;;;;;
2023/01/31 11:40:55;;;;;;;24.88;4.13;;;7.10;99.90;;;;;;4667368;30;20062;-90
2023/01/31 11:43:20;;;;;;;28.38;4.40;;;7.00;99.90;;;;;;4616202;31;20075;-90
2023/01/31 11:46:15;;;;;;;31.50;4.07;;;7.10;99.90;;;;;;4615903;31;20526;-90
2023/01/31 11:48:50;;;;;;;27.98;3.88;;;7.10;99.90;;;;;;4601625;31;20047;-89
2023/01/31 11:51:46;;;;;;;25.63;3.92;;;7.10;99.90;;;;;;4632467;30;20062;-89
2023/01/31 11:54:20;;;;;;;28.25;3.83;;;7.10;99.90;;;;;;4652397;30;20058;-90
2023/01/31 11:56:46;;;;;;;24.25;3.38;;;7.10;99.90;;;;;;4663061;30;20056;-90
2023/01/31 11:59:35;;;;;;;22.90;3.63;;;7.10;99.90;;;;;;4669029;30;20054;-90
2023/01/31 12:02:38;;;;;;;17.48;3.38;;;7.10;99.90;;;;;;4667679;30;20577;-90
2023/01/31 12:05:35;;;;;;;20.20;3.75;;;7.10;99.90;;;;;;4677377;30;20065;-89
2023/01/31 12:08:03;;;;;;;23.92;3.92;;;7.10;99.90;;;;;;4626520;31;20477;-90
2023/01/31 12:10:44;;;;;;;17.70;3.30;;;7.20;99.90;;;;;;4629025;30;20072;-90
2023/01/31 12:13:33;;;;;;;24.08;3.90;;;7.30;99.90;;;;;;4630816;31;20047;-90
2023/01/31 12:16:05;;;;;;;23.98;3.50;;;7.20;99.90;;;;;;4630591;30;20073;-91
2023/01/31 12:19:13;;;;;;;21.73;3.50;;;7.30;99.90;;;;;;4616266;31;20059;-90
2023/01/31 12:22:05;;;;;;;27.95;3.70;;;7.30;99.90;;;;;;4635222;30;20073;-91
2023/01/31 12:24:58;;;;;;;25.27;3.65;;;7.30;99.90;;;;;;4631329;30;20059;-90
2023/01/31 12:28:01;;;;;;;23.17;3.40;;;7.40;99.90;;;;;;4634768;30;20122;-89
2023/01/31 12:31:03;;;;;;;23.55;3.45;;;7.40;99.90;;;;;;4641815;30;20485;-89
2023/01/31 12:33:38;;;;;;;22.63;3.83;;;7.50;99.90;;;;;;4634024;30;20145;-89
2023/01/31 12:36:52;;;;;;;22.98;3.80;;;7.50;99.90;;;;;;4632461;30;20074;-89
2023/01/31 12:39:50;;;;;;;29.58;3.72;;;7.50;99.90;;;;;;4663942;25;20062;-90
2023/01/31 12:42:49;;;;;;;21.30;4.32;;;7.60;99.90;;;;;;4684456;24;20054;-89
2023/01/31 12:45:39;;;;;;;18.23;3.53;;;7.60;99.90;;;;;;4669638;30;20043;-90
2023/01/31 12:48:38;;;;;;;20.23;3.50;;;7.70;99.90;;;;;;4669043;30;20057;-89
2023/01/31 12:51:10;;;;;;;19.80;3.28;;;7.70;99.90;;;;;;4678516;30;20093;-89
2023/01/31 12:53:52;;;;;;;21.02;3.10;;;7.70;99.90;;;;;;4681697;30;20156;-89
2023/01/31 12:56:27;;;;;;;17.73;3.20;;;7.80;99.90;;;;;;4682309;30;20140;-89
2023/01/31 12:59:40;;;;;;;19.35;3.50;;;7.90;99.90;;;;;;4670361;30;20153;-89
2023/01/31 13:02:26;;;;;;;22.63;3.70;;;7.90;99.90;;;;;;4683120;30;20045;-89
2023/01/31 13:04:58;;;;;;;15.38;2.67;;;7.90;99.90;;;;;;4682517;30;20060;-88
2023/01/31 13:07:38;;;;;;;19.33;2.83;;;8.00;99.90;;;;;;4665036;30;20054;-89
2023/01/31 13:10:23;;;;;;;20.87;3.23;;;8.00;99.90;;;;;;4665924;30;20120;-90
2023/01/31 13:12:57;;;;;;;14.00;2.50;;;8.00;99.90;;;;;;4679336;25;20305;-90
2023/01/31 13:15:49;;;;;;;14.95;2.80;;;8.20;99.90;;;;;;4667086;30;20519;-88
2023/01/31 13:18:22;;;;;;;16.10;2.50;;;8.20;99.90;;;;;;4667680;30;20060;-89
2023/01/31 13:21:20;;;;;;;14.48;3.15;;;8.20;99.90;;;;;;4667483;30;20128;-88
2023/01/31 13:23:52;;;;;;;23.20;3.22;;;8.20;99.90;;;;;;4667668;30;20065;-89
2023/01/31 13:26:51;;;;;;;15.07;2.70;;;8.30;99.90;;;;;;4667716;30;20057;-89
2023/01/31 13:30:02;;;;;;;17.83;3.15;;;8.30;99.90;;;;;;4647391;30;20160;-89
2023/01/31 13:32:55;;;;;;;18.42;2.70;;;8.30;99.90;;;;;;4665475;30;20129;-89
2023/01/31 13:35:32;;;;;;;15.48;3.28;;;8.40;99.90;;;;;;4650316;30;20189;-89
2023/01/31 13:38:19;;;;;;;15.27;2.90;;;8.40;99.90;;;;;;4650769;30;20061;-88
2023/01/31 13:40:56;;;;;;;15.63;2.80;;;8.40;99.90;;;;;;4650517;30;20067;-89
2023/01/31 13:43:21;;;;;;;15.55;2.65;;;8.50;99.90;;;;;;4661755;30;20420;-88
2023/01/31 13:46:18;;;;;;;15.38;2.88;;;8.50;99.90;;;;;;4666805;30;20116;-89
2023/01/31 13:49:20;;;;;;;16.98;3.42;;;8.50;99.90;;;;;;4666921;30;20054;-90
2023/01/31 13:52:05;;;;;;;19.52;3.25;;;8.60;99.90;;;;;;4667912;30;20112;-89
2023/01/31 13:54:56;;;;;;;17.65;2.50;;;8.50;99.90;;;;;;4668097;30;20419;-90